Aérodrome :
LOGIN :

S'inscrire | Disclaimer

   EN    FR    IT 

 










Légende :    VFR   VFR Marginal   IFR   IFR Intensif   IFR Très Intensif
Visi : 
Plafond : 
>= 8 km
>= 3000ft
5 à 8 km
1000 à 3000 ft
1500m à 5 km
500 à 1000 ft
800 à 1500m
200 à 500 ft
< 800m
< 200 ft
Symboles :   Orages  Brouillard  Fortes neiges  Fortes précipitations  Vent > 20 kt
SIGMETs :   Divers  Orages  Givrage  Turbulence  Onde Orograph.  Cendres Volcan.







- Altitude de l'aérodrome : 636 ft


LPBJ - Beja Air Base

DERNIER METAR :
  • 130200Z 21012KT 9999 -RA FEW015 SCT030 13/13 Q1017

METARs EXPIRÉS :
  • 130100Z 21010KT 9999 SCT018 SCT030 13/12 Q1017
  • 130000Z 20009KT 9999 -RA SCT023 SCT042 12/11 Q1018

TAF TAF LPBJ
Valide du 13 à 00h jusqu'au 14 à 00h UTC


122305Z 1300/1324 21012KT 9999 SCT012 SCT030
TEMPO 1300/1306 2000 RADZ BR BKN005 BKN012
TEMPO 1303/1306 22018G32KT
BECMG 1305/1307 31015KT FEW025
TEMPO 1306/1317 32018G30KT
Pas de NOTAMs connus pour ce terrain.
2 SIGMETs publiés pour la FIR Lisboa (LPPC) :
 
Turbulence forte
LPPC SIGMET 2 VALID 122345/130300 LPPT
LPPC LISBON FIR SEV TURB FCST WI N3215 W01438 - N3630 W01500 - N4200 W01500 - N4000 W01200 - N3558 W01200 - N3215 W01438 FL270/390 MOV E 40KT NC=
Turbulence forte
LPPC SIGMET 1 VALID 130300/130600 LPPT
LPPC LISBON FIR SEV TURB FCST WI N3558 W00722 - N3600 W01100 - N4300 W01300 - N4200 W01000 - N3558 W00722 FL220/400 MOV E 40KT WKN=



MET'MAP, la Météo Aéronautique d'un coup d'oeil ! - Copyright ORBIFLY Décembre 2007 - Disclaimer

ORBIFLY MET'MAP TEAM :

Programmation & Développement : Alexandra Zaïnal
Conception & Développement : Baudouin d'Aumeries
Co-Programmation & Développement : Marc-Olivier Méhu
Soutien technique & logistique : Manuel Goepfert

Contact : metmap@orbifly.com




SOURCES & CREDITS :

   NOAA